Terminal Aerodrome Forecast
Issued by NWS

Home | Current Version | Previous Version | Graphics & Text | Print | Product List | Glossary On
Versions: 1 2 3 4 5 6 7 8 9 10 11 12
000
FTUS43 KTOP 262300
TAFFOE
TAF
KFOE 262333Z 2700/2724 22011KT P6SM SCT120
     FM270400 36009KT P6SM SCT150
     FM271400 35014G21KT P6SM SKC=

USA.gov is the U.S. government's official web portal to all federal, state and local government web resources and services.